sensor_id;sensor_type;location;lat;lon;timestamp;P1;durP1;ratioP1;P2;durP2;ratioP2
62711;SDS011;48772;55.586;37.730;2023-08-07T00:00:58;13.93;;;5.65;;
62711;SDS011;48772;55.586;37.730;2023-08-07T00:03:24;14.80;;;5.80;;
62711;SDS011;48772;55.586;37.730;2023-08-07T00:05:50;9.13;;;5.38;;
62711;SDS011;48772;55.586;37.730;2023-08-07T00:08:18;13.60;;;5.78;;
62711;SDS011;48772;55.586;37.730;2023-08-07T00:10:44;15.68;;;5.50;;
62711;SDS011;48772;55.586;37.730;2023-08-07T00:13:10;13.25;;;5.82;;
62711;SDS011;48772;55.586;37.730;2023-08-07T00:15:39;15.32;;;5.93;;
62711;SDS011;48772;55.586;37.730;2023-08-07T00:18:05;12.85;;;5.70;;
62711;SDS011;48772;55.586;37.730;2023-08-07T00:20:31;15.20;;;6.28;;
62711;SDS011;48772;55.586;37.730;2023-08-07T00:22:57;14.82;;;5.95;;
62711;SDS011;48772;55.586;37.730;2023-08-07T00:25:23;11.40;;;5.32;;
62711;SDS011;48772;55.586;37.730;2023-08-07T00:27:50;10.50;;;5.43;;
62711;SDS011;48772;55.586;37.730;2023-08-07T00:30:16;13.52;;;5.80;;
62711;SDS011;48772;55.586;37.730;2023-08-07T00:32:44;15.30;;;5.60;;
62711;SDS011;48772;55.586;37.730;2023-08-07T00:35:10;9.23;;;5.22;;
62711;SDS011;48772;55.586;37.730;2023-08-07T00:37:36;12.57;;;5.80;;
62711;SDS011;48772;55.586;37.730;2023-08-07T00:40:02;9.13;;;5.35;;
62711;SDS011;48772;55.586;37.730;2023-08-07T00:42:31;7.63;;;4.93;;
62711;SDS011;48772;55.586;37.730;2023-08-07T00:44:56;14.90;;;5.43;;
62711;SDS011;48772;55.586;37.730;2023-08-07T00:47:22;18.73;;;6.35;;
62711;SDS011;48772;55.586;37.730;2023-08-07T00:49:48;11.57;;;5.15;;
62711;SDS011;48772;55.586;37.730;2023-08-07T00:52:14;17.08;;;6.20;;
62711;SDS011;48772;55.586;37.730;2023-08-07T00:54:40;20.55;;;6.68;;
62711;SDS011;48772;55.586;37.730;2023-08-07T00:57:11;15.90;;;5.72;;
62711;SDS011;48772;55.586;37.730;2023-08-07T00:59:40;17.98;;;6.68;;
62711;SDS011;48772;55.586;37.730;2023-08-07T01:02:07;20.77;;;6.75;;
62711;SDS011;48772;55.586;37.730;2023-08-07T01:04:34;17.58;;;5.88;;
62711;SDS011;48772;55.586;37.730;2023-08-07T01:07:02;14.13;;;6.20;;
62711;SDS011;48772;55.586;37.730;2023-08-07T01:09:28;20.00;;;6.00;;
62711;SDS011;48772;55.586;37.730;2023-08-07T01:14:51;12.90;;;5.40;;
62711;SDS011;48772;55.586;37.730;2023-08-07T01:17:21;17.45;;;5.43;;
62711;SDS011;48772;55.586;37.730;2023-08-07T01:19:52;15.82;;;5.30;;
62711;SDS011;48772;55.586;37.730;2023-08-07T01:22:18;11.07;;;4.85;;
62711;SDS011;48772;55.586;37.730;2023-08-07T01:24:46;15.40;;;5.93;;
62711;SDS011;48772;55.586;37.730;2023-08-07T01:32:24;13.38;;;5.40;;
62711;SDS011;48772;55.586;37.730;2023-08-07T01:34:54;17.83;;;5.50;;
62711;SDS011;48772;55.586;37.730;2023-08-07T01:37:21;13.95;;;5.15;;
62711;SDS011;48772;55.586;37.730;2023-08-07T01:39:48;8.32;;;4.82;;
62711;SDS011;48772;55.586;37.730;2023-08-07T01:42:16;11.70;;;5.95;;
62711;SDS011;48772;55.586;37.730;2023-08-07T01:44:42;16.00;;;6.57;;
62711;SDS011;48772;55.586;37.730;2023-08-07T01:47:08;10.43;;;5.90;;
62711;SDS011;48772;55.586;37.730;2023-08-07T01:49:34;14.63;;;6.97;;
62711;SDS011;48772;55.586;37.730;2023-08-07T01:52:00;16.58;;;6.47;;
62711;SDS011;48772;55.586;37.730;2023-08-07T01:54:27;13.73;;;5.72;;
62711;SDS011;48772;55.586;37.730;2023-08-07T01:56:53;16.65;;;6.32;;
62711;SDS011;48772;55.586;37.730;2023-08-07T01:59:19;15.95;;;6.93;;
62711;SDS011;48772;55.586;37.730;2023-08-07T02:01:45;12.57;;;6.25;;
62711;SDS011;48772;55.586;37.730;2023-08-07T02:04:10;16.10;;;6.93;;
62711;SDS011;48772;55.586;37.730;2023-08-07T02:06:36;13.07;;;6.50;;
62711;SDS011;48772;55.586;37.730;2023-08-07T02:09:02;20.88;;;7.13;;
62711;SDS011;48772;55.586;37.730;2023-08-07T02:11:28;14.63;;;6.25;;
62711;SDS011;48772;55.586;37.730;2023-08-07T02:13:54;12.32;;;6.43;;
62711;SDS011;48772;55.586;37.730;2023-08-07T02:16:20;10.68;;;5.88;;
62711;SDS011;48772;55.586;37.730;2023-08-07T02:18:46;15.95;;;6.88;;
62711;SDS011;48772;55.586;37.730;2023-08-07T02:21:32;11.52;;;6.10;;
62711;SDS011;48772;55.586;37.730;2023-08-07T02:23:58;12.63;;;6.55;;
62711;SDS011;48772;55.586;37.730;2023-08-07T02:26:23;19.80;;;6.65;;
62711;SDS011;48772;55.586;37.730;2023-08-07T02:28:49;11.85;;;6.80;;
62711;SDS011;48772;55.586;37.730;2023-08-07T02:31:15;9.57;;;6.35;;
62711;SDS011;48772;55.586;37.730;2023-08-07T02:33:41;17.67;;;6.53;;
62711;SDS011;48772;55.586;37.730;2023-08-07T02:36:07;12.25;;;6.40;;
62711;SDS011;48772;55.586;37.730;2023-08-07T02:38:33;11.88;;;6.43;;
62711;SDS011;48772;55.586;37.730;2023-08-07T02:40:59;12.27;;;6.70;;
62711;SDS011;48772;55.586;37.730;2023-08-07T02:43:25;15.73;;;6.78;;
62711;SDS011;48772;55.586;37.730;2023-08-07T02:45:54;11.38;;;6.72;;
62711;SDS011;48772;55.586;37.730;2023-08-07T02:48:20;17.80;;;6.53;;
62711;SDS011;48772;55.586;37.730;2023-08-07T02:50:46;13.88;;;6.93;;
62711;SDS011;48772;55.586;37.730;2023-08-07T02:53:12;13.18;;;6.43;;
62711;SDS011;48772;55.586;37.730;2023-08-07T02:55:38;11.57;;;6.57;;
62711;SDS011;48772;55.586;37.730;2023-08-07T02:58:04;7.82;;;5.75;;
62711;SDS011;48772;55.586;37.730;2023-08-07T03:00:30;16.95;;;5.80;;
62711;SDS011;48772;55.586;37.730;2023-08-07T03:02:56;14.10;;;5.43;;
62711;SDS011;48772;55.586;37.730;2023-08-07T03:05:22;13.55;;;5.57;;
62711;SDS011;48772;55.586;37.730;2023-08-07T03:07:48;15.25;;;6.05;;
62711;SDS011;48772;55.586;37.730;2023-08-07T03:10:13;9.52;;;5.70;;
62711;SDS011;48772;55.586;37.730;2023-08-07T03:12:39;12.13;;;5.93;;
62711;SDS011;48772;55.586;37.730;2023-08-07T03:15:05;13.25;;;5.55;;
62711;SDS011;48772;55.586;37.730;2023-08-07T03:17:32;15.35;;;5.97;;
62711;SDS011;48772;55.586;37.730;2023-08-07T03:19:57;13.35;;;5.78;;
62711;SDS011;48772;55.586;37.730;2023-08-07T03:22:23;9.27;;;5.30;;
62711;SDS011;48772;55.586;37.730;2023-08-07T03:24:49;11.90;;;5.80;;
62711;SDS011;48772;55.586;37.730;2023-08-07T03:27:15;13.02;;;6.28;;
62711;SDS011;48772;55.586;37.730;2023-08-07T03:29:41;10.02;;;5.32;;
62711;SDS011;48772;55.586;37.730;2023-08-07T03:32:08;12.85;;;5.10;;
62711;SDS011;48772;55.586;37.730;2023-08-07T03:34:36;10.68;;;5.70;;
62711;SDS011;48772;55.586;37.730;2023-08-07T03:37:03;10.27;;;5.18;;
62711;SDS011;48772;55.586;37.730;2023-08-07T03:39:29;7.47;;;4.75;;
62711;SDS011;48772;55.586;37.730;2023-08-07T03:41:55;7.75;;;4.30;;
62711;SDS011;48772;55.586;37.730;2023-08-07T03:44:21;9.95;;;4.05;;
62711;SDS011;48772;55.586;37.730;2023-08-07T03:46:47;10.77;;;4.60;;
62711;SDS011;48772;55.586;37.730;2023-08-07T03:49:12;13.82;;;4.63;;
62711;SDS011;48772;55.586;37.730;2023-08-07T03:51:39;7.35;;;4.20;;
62711;SDS011;48772;55.586;37.730;2023-08-07T03:54:05;10.80;;;3.78;;
62711;SDS011;48772;55.586;37.730;2023-08-07T03:56:31;9.95;;;4.00;;
62711;SDS011;48772;55.586;37.730;2023-08-07T03:59:02;9.00;;;3.70;;
62711;SDS011;48772;55.586;37.730;2023-08-07T04:01:29;6.50;;;3.90;;
62711;SDS011;48772;55.586;37.730;2023-08-07T04:03:55;5.45;;;3.58;;
62711;SDS011;48772;55.586;37.730;2023-08-07T04:06:21;7.22;;;3.50;;
62711;SDS011;48772;55.586;37.730;2023-08-07T04:08:48;7.20;;;3.97;;
62711;SDS011;48772;55.586;37.730;2023-08-07T04:11:14;7.95;;;3.70;;
62711;SDS011;48772;55.586;37.730;2023-08-07T04:13:40;6.60;;;3.88;;
62711;SDS011;48772;55.586;37.730;2023-08-07T04:16:08;8.65;;;3.83;;
62711;SDS011;48772;55.586;37.730;2023-08-07T04:18:34;5.20;;;3.78;;
62711;SDS011;48772;55.586;37.730;2023-08-07T04:21:02;7.97;;;3.90;;
62711;SDS011;48772;55.586;37.730;2023-08-07T04:23:28;7.03;;;3.45;;
62711;SDS011;48772;55.586;37.730;2023-08-07T04:25:54;6.40;;;3.80;;
62711;SDS011;48772;55.586;37.730;2023-08-07T04:28:20;8.55;;;3.63;;
62711;SDS011;48772;55.586;37.730;2023-08-07T04:30:48;6.18;;;3.50;;
62711;SDS011;48772;55.586;37.730;2023-08-07T04:33:16;7.40;;;3.20;;
62711;SDS011;48772;55.586;37.730;2023-08-07T04:35:42;8.52;;;3.25;;
62711;SDS011;48772;55.586;37.730;2023-08-07T04:38:08;3.72;;;3.10;;
62711;SDS011;48772;55.586;37.730;2023-08-07T04:40:34;6.45;;;3.10;;
62711;SDS011;48772;55.586;37.730;2023-08-07T04:43:00;5.90;;;3.42;;
62711;SDS011;48772;55.586;37.730;2023-08-07T04:45:26;9.23;;;3.00;;
62711;SDS011;48772;55.586;37.730;2023-08-07T04:47:51;4.07;;;2.90;;
62711;SDS011;48772;55.586;37.730;2023-08-07T04:50:17;7.38;;;3.05;;
62711;SDS011;48772;55.586;37.730;2023-08-07T04:52:43;4.70;;;3.05;;
62711;SDS011;48772;55.586;37.730;2023-08-07T04:55:09;8.05;;;3.00;;
62711;SDS011;48772;55.586;37.730;2023-08-07T04:57:35;4.07;;;2.67;;
62711;SDS011;48772;55.586;37.730;2023-08-07T05:00:00;5.03;;;2.88;;
62711;SDS011;48772;55.586;37.730;2023-08-07T05:02:27;6.18;;;2.60;;
62711;SDS011;48772;55.586;37.730;2023-08-07T05:04:53;3.97;;;2.78;;
62711;SDS011;48772;55.586;37.730;2023-08-07T05:07:18;4.63;;;2.88;;
62711;SDS011;48772;55.586;37.730;2023-08-07T05:09:44;13.32;;;2.95;;
62711;SDS011;48772;55.586;37.730;2023-08-07T05:12:10;5.85;;;2.90;;
62711;SDS011;48772;55.586;37.730;2023-08-07T05:14:35;4.07;;;2.50;;
62711;SDS011;48772;55.586;37.730;2023-08-07T05:17:01;4.40;;;2.90;;
62711;SDS011;48772;55.586;37.730;2023-08-07T05:19:27;5.43;;;2.65;;
62711;SDS011;48772;55.586;37.730;2023-08-07T05:21:53;6.70;;;2.70;;
62711;SDS011;48772;55.586;37.730;2023-08-07T05:24:19;5.97;;;2.80;;
62711;SDS011;48772;55.586;37.730;2023-08-07T05:26:45;9.48;;;2.90;;
62711;SDS011;48772;55.586;37.730;2023-08-07T05:29:11;8.73;;;2.88;;
62711;SDS011;48772;55.586;37.730;2023-08-07T05:31:37;7.60;;;3.13;;
62711;SDS011;48772;55.586;37.730;2023-08-07T05:34:02;5.15;;;2.80;;
62711;SDS011;48772;55.586;37.730;2023-08-07T05:36:28;7.07;;;3.15;;
62711;SDS011;48772;55.586;37.730;2023-08-07T05:38:57;5.00;;;2.45;;
62711;SDS011;48772;55.586;37.730;2023-08-07T05:41:23;4.45;;;2.45;;
62711;SDS011;48772;55.586;37.730;2023-08-07T05:43:49;5.22;;;2.55;;
62711;SDS011;48772;55.586;37.730;2023-08-07T05:46:15;7.35;;;2.85;;
62711;SDS011;48772;55.586;37.730;2023-08-07T05:48:41;7.32;;;3.10;;
62711;SDS011;48772;55.586;37.730;2023-08-07T05:51:07;6.35;;;2.70;;
62711;SDS011;48772;55.586;37.730;2023-08-07T05:53:34;4.50;;;2.40;;
62711;SDS011;48772;55.586;37.730;2023-08-07T05:56:00;6.40;;;2.30;;
62711;SDS011;48772;55.586;37.730;2023-08-07T05:58:26;5.22;;;2.58;;
62711;SDS011;48772;55.586;37.730;2023-08-07T06:00:52;10.35;;;2.70;;
62711;SDS011;48772;55.586;37.730;2023-08-07T06:03:18;11.55;;;2.80;;
62711;SDS011;48772;55.586;37.730;2023-08-07T06:05:44;6.07;;;2.40;;
62711;SDS011;48772;55.586;37.730;2023-08-07T06:08:10;5.05;;;2.58;;
62711;SDS011;48772;55.586;37.730;2023-08-07T06:10:37;4.53;;;2.50;;
62711;SDS011;48772;55.586;37.730;2023-08-07T06:13:03;9.13;;;2.75;;
62711;SDS011;48772;55.586;37.730;2023-08-07T06:15:31;4.50;;;2.33;;
62711;SDS011;48772;55.586;37.730;2023-08-07T06:17:58;4.95;;;2.33;;
62711;SDS011;48772;55.586;37.730;2023-08-07T06:20:23;4.68;;;2.30;;
62711;SDS011;48772;55.586;37.730;2023-08-07T06:22:49;9.50;;;2.40;;
62711;SDS011;48772;55.586;37.730;2023-08-07T06:25:15;7.68;;;2.30;;
62711;SDS011;48772;55.586;37.730;2023-08-07T06:27:41;4.13;;;2.00;;
62711;SDS011;48772;55.586;37.730;2023-08-07T06:30:07;7.97;;;2.20;;
62711;SDS011;48772;55.586;37.730;2023-08-07T06:32:34;14.45;;;2.63;;
62711;SDS011;48772;55.586;37.730;2023-08-07T06:35:00;12.93;;;2.72;;
62711;SDS011;48772;55.586;37.730;2023-08-07T06:37:26;4.32;;;2.10;;
62711;SDS011;48772;55.586;37.730;2023-08-07T06:39:51;5.20;;;2.03;;
62711;SDS011;48772;55.586;37.730;2023-08-07T06:42:17;3.95;;;2.17;;
62711;SDS011;48772;55.586;37.730;2023-08-07T06:44:44;9.07;;;2.20;;
62711;SDS011;48772;55.586;37.730;2023-08-07T06:47:10;6.35;;;2.50;;
62711;SDS011;48772;55.586;37.730;2023-08-07T06:49:36;4.75;;;2.10;;
62711;SDS011;48772;55.586;37.730;2023-08-07T06:52:02;3.03;;;2.00;;
62711;SDS011;48772;55.586;37.730;2023-08-07T06:54:29;9.20;;;2.20;;
62711;SDS011;48772;55.586;37.730;2023-08-07T06:56:55;4.45;;;2.30;;
62711;SDS011;48772;55.586;37.730;2023-08-07T06:59:20;8.57;;;2.03;;
62711;SDS011;48772;55.586;37.730;2023-08-07T07:01:46;9.90;;;2.42;;
62711;SDS011;48772;55.586;37.730;2023-08-07T07:04:12;5.18;;;2.20;;
62711;SDS011;48772;55.586;37.730;2023-08-07T07:06:38;6.72;;;2.50;;
62711;SDS011;48772;55.586;37.730;2023-08-07T07:09:05;9.52;;;2.30;;
62711;SDS011;48772;55.586;37.730;2023-08-07T07:11:34;11.30;;;2.30;;
62711;SDS011;48772;55.586;37.730;2023-08-07T07:14:00;9.38;;;2.38;;
62711;SDS011;48772;55.586;37.730;2023-08-07T07:16:26;4.75;;;2.22;;
62711;SDS011;48772;55.586;37.730;2023-08-07T07:18:52;7.65;;;2.25;;
62711;SDS011;48772;55.586;37.730;2023-08-07T07:21:18;6.40;;;2.35;;
62711;SDS011;48772;55.586;37.730;2023-08-07T07:23:43;5.70;;;2.03;;
62711;SDS011;48772;55.586;37.730;2023-08-07T07:26:09;8.63;;;1.90;;
62711;SDS011;48772;55.586;37.730;2023-08-07T07:28:35;4.43;;;2.50;;
62711;SDS011;48772;55.586;37.730;2023-08-07T07:31:01;14.90;;;2.20;;
62711;SDS011;48772;55.586;37.730;2023-08-07T07:33:29;4.90;;;2.17;;
62711;SDS011;48772;55.586;37.730;2023-08-07T07:35:56;4.22;;;2.08;;
62711;SDS011;48772;55.586;37.730;2023-08-07T07:38:22;5.05;;;2.00;;
62711;SDS011;48772;55.586;37.730;2023-08-07T07:40:47;8.88;;;2.50;;
62711;SDS011;48772;55.586;37.730;2023-08-07T07:43:13;8.23;;;2.30;;
62711;SDS011;48772;55.586;37.730;2023-08-07T07:45:41;4.03;;;2.00;;
62711;SDS011;48772;55.586;37.730;2023-08-07T07:48:07;5.97;;;2.28;;
62711;SDS011;48772;55.586;37.730;2023-08-07T07:50:33;4.25;;;1.77;;
62711;SDS011;48772;55.586;37.730;2023-08-07T07:52:59;5.95;;;1.88;;
62711;SDS011;48772;55.586;37.730;2023-08-07T07:55:25;3.92;;;1.77;;
62711;SDS011;48772;55.586;37.730;2023-08-07T07:57:51;6.15;;;2.00;;
62711;SDS011;48772;55.586;37.730;2023-08-07T08:00:17;3.80;;;2.10;;
62711;SDS011;48772;55.586;37.730;2023-08-07T08:02:45;4.18;;;1.88;;
62711;SDS011;48772;55.586;37.730;2023-08-07T08:05:11;4.68;;;2.03;;
62711;SDS011;48772;55.586;37.730;2023-08-07T08:07:38;4.43;;;1.75;;
62711;SDS011;48772;55.586;37.730;2023-08-07T08:10:07;3.10;;;1.73;;
62711;SDS011;48772;55.586;37.730;2023-08-07T08:12:37;6.93;;;1.80;;
62711;SDS011;48772;55.586;37.730;2023-08-07T08:15:03;6.88;;;1.70;;
62711;SDS011;48772;55.586;37.730;2023-08-07T08:17:32;6.80;;;2.08;;
62711;SDS011;48772;55.586;37.730;2023-08-07T08:19:58;5.03;;;1.80;;
62711;SDS011;48772;55.586;37.730;2023-08-07T08:22:24;8.32;;;1.70;;
62711;SDS011;48772;55.586;37.730;2023-08-07T08:24:50;11.40;;;1.85;;
62711;SDS011;48772;55.586;37.730;2023-08-07T08:27:16;3.88;;;1.75;;
62711;SDS011;48772;55.586;37.730;2023-08-07T08:29:43;3.80;;;1.90;;
62711;SDS011;48772;55.586;37.730;2023-08-07T08:32:11;4.60;;;1.90;;
62711;SDS011;48772;55.586;37.730;2023-08-07T08:34:37;9.05;;;1.80;;
62711;SDS011;48772;55.586;37.730;2023-08-07T08:37:03;3.25;;;1.70;;
62711;SDS011;48772;55.586;37.730;2023-08-07T08:39:31;3.33;;;1.60;;
62711;SDS011;48772;55.586;37.730;2023-08-07T08:41:57;5.00;;;1.83;;
62711;SDS011;48772;55.586;37.730;2023-08-07T08:44:25;6.75;;;2.03;;
62711;SDS011;48772;55.586;37.730;2023-08-07T08:46:53;2.72;;;1.70;;
62711;SDS011;48772;55.586;37.730;2023-08-07T08:49:23;3.10;;;1.58;;
62711;SDS011;48772;55.586;37.730;2023-08-07T08:51:55;5.03;;;1.60;;
62711;SDS011;48772;55.586;37.730;2023-08-07T08:54:21;4.63;;;1.75;;
62711;SDS011;48772;55.586;37.730;2023-08-07T08:56:56;5.55;;;1.63;;
62711;SDS011;48772;55.586;37.730;2023-08-07T08:59:25;7.75;;;1.80;;
62711;SDS011;48772;55.586;37.730;2023-08-07T09:01:52;3.53;;;1.50;;
62711;SDS011;48772;55.586;37.730;2023-08-07T09:04:18;5.63;;;1.80;;
62711;SDS011;48772;55.586;37.730;2023-08-07T09:25:41;6.57;;;1.90;;
62711;SDS011;48772;55.586;37.730;2023-08-07T09:28:09;5.50;;;1.90;;
62711;SDS011;48772;55.586;37.730;2023-08-07T09:30:51;6.38;;;1.58;;
62711;SDS011;48772;55.586;37.730;2023-08-07T09:40:14;2.97;;;1.90;;
62711;SDS011;48772;55.586;37.730;2023-08-07T09:42:42;5.18;;;1.60;;
62711;SDS011;48772;55.586;37.730;2023-08-07T09:45:29;9.55;;;1.80;;
62711;SDS011;48772;55.586;37.730;2023-08-07T09:51:18;2.80;;;1.75;;
62711;SDS011;48772;55.586;37.730;2023-08-07T09:53:44;4.95;;;1.80;;
62711;SDS011;48772;55.586;37.730;2023-08-07T09:56:12;5.53;;;1.75;;
62711;SDS011;48772;55.586;37.730;2023-08-07T09:58:49;4.30;;;1.90;;
62711;SDS011;48772;55.586;37.730;2023-08-07T10:01:21;2.38;;;1.90;;
62711;SDS011;48772;55.586;37.730;2023-08-07T10:03:48;9.93;;;1.90;;
62711;SDS011;48772;55.586;37.730;2023-08-07T10:06:14;6.03;;;1.60;;
62711;SDS011;48772;55.586;37.730;2023-08-07T10:08:42;6.72;;;2.00;;
62711;SDS011;48772;55.586;37.730;2023-08-07T10:11:41;3.55;;;2.25;;
62711;SDS011;48772;55.586;37.730;2023-08-07T10:24:51;4.50;;;2.00;;
62711;SDS011;48772;55.586;37.730;2023-08-07T10:27:20;5.40;;;1.75;;
62711;SDS011;48772;55.586;37.730;2023-08-07T10:29:48;4.30;;;1.90;;
62711;SDS011;48772;55.586;37.730;2023-08-07T10:32:17;7.22;;;2.25;;
62711;SDS011;48772;55.586;37.730;2023-08-07T10:42:51;6.50;;;2.17;;
62711;SDS011;48772;55.586;37.730;2023-08-07T10:45:18;5.97;;;2.47;;
62711;SDS011;48772;55.586;37.730;2023-08-07T10:50:32;10.48;;;2.35;;
62711;SDS011;48772;55.586;37.730;2023-08-07T10:53:03;7.45;;;2.60;;
62711;SDS011;48772;55.586;37.730;2023-08-07T10:55:46;8.90;;;2.30;;
62711;SDS011;48772;55.586;37.730;2023-08-07T11:04:09;8.63;;;2.20;;
62711;SDS011;48772;55.586;37.730;2023-08-07T11:06:39;2.53;;;2.03;;
62711;SDS011;48772;55.586;37.730;2023-08-07T11:09:08;3.72;;;2.22;;
62711;SDS011;48772;55.586;37.730;2023-08-07T11:11:36;3.42;;;2.10;;
62711;SDS011;48772;55.586;37.730;2023-08-07T11:14:13;8.88;;;2.38;;
62711;SDS011;48772;55.586;37.730;2023-08-07T11:19:35;7.75;;;2.05;;
62711;SDS011;48772;55.586;37.730;2023-08-07T11:22:03;7.35;;;2.20;;
62711;SDS011;48772;55.586;37.730;2023-08-07T11:24:36;2.33;;;2.10;;
62711;SDS011;48772;55.586;37.730;2023-08-07T11:31:09;6.53;;;2.33;;
62711;SDS011;48772;55.586;37.730;2023-08-07T11:33:40;8.40;;;2.20;;
62711;SDS011;48772;55.586;37.730;2023-08-07T11:36:13;3.63;;;2.10;;
62711;SDS011;48772;55.586;37.730;2023-08-07T11:38:41;6.20;;;2.55;;
62711;SDS011;48772;55.586;37.730;2023-08-07T11:41:13;10.43;;;2.42;;
62711;SDS011;48772;55.586;37.730;2023-08-07T11:43:59;6.85;;;2.20;;
62711;SDS011;48772;55.586;37.730;2023-08-07T11:46:25;4.25;;;2.30;;
62711;SDS011;48772;55.586;37.730;2023-08-07T11:48:51;4.40;;;2.10;;
62711;SDS011;48772;55.586;37.730;2023-08-07T11:51:20;5.07;;;1.90;;
62711;SDS011;48772;55.586;37.730;2023-08-07T11:53:49;7.25;;;2.40;;
62711;SDS011;48772;55.586;37.730;2023-08-07T11:56:15;5.65;;;2.20;;
62711;SDS011;48772;55.586;37.730;2023-08-07T11:58:44;6.35;;;2.53;;
62711;SDS011;48772;55.586;37.730;2023-08-07T12:01:15;5.85;;;2.30;;
62711;SDS011;48772;55.586;37.730;2023-08-07T12:08:06;3.00;;;2.10;;
62711;SDS011;48772;55.586;37.730;2023-08-07T12:10:34;3.28;;;2.60;;
62711;SDS011;48772;55.586;37.730;2023-08-07T12:13:00;4.70;;;2.33;;
62711;SDS011;48772;55.586;37.730;2023-08-07T12:15:31;4.93;;;2.28;;
62711;SDS011;48772;55.586;37.730;2023-08-07T12:18:01;5.28;;;2.20;;
62711;SDS011;48772;55.586;37.730;2023-08-07T12:20:28;4.13;;;2.33;;
62711;SDS011;48772;55.586;37.730;2023-08-07T12:22:55;4.55;;;2.13;;
62711;SDS011;48772;55.586;37.730;2023-08-07T12:25:21;4.50;;;2.55;;
62711;SDS011;48772;55.586;37.730;2023-08-07T12:27:47;5.72;;;2.50;;
62711;SDS011;48772;55.586;37.730;2023-08-07T12:30:15;8.27;;;2.70;;
62711;SDS011;48772;55.586;37.730;2023-08-07T12:32:41;3.42;;;2.20;;
62711;SDS011;48772;55.586;37.730;2023-08-07T12:35:09;9.02;;;2.60;;
62711;SDS011;48772;55.586;37.730;2023-08-07T12:37:37;12.00;;;2.47;;
62711;SDS011;48772;55.586;37.730;2023-08-07T12:40:05;5.50;;;2.20;;
62711;SDS011;48772;55.586;37.730;2023-08-07T12:42:31;3.38;;;2.40;;
62711;SDS011;48772;55.586;37.730;2023-08-07T12:44:57;7.30;;;2.35;;
62711;SDS011;48772;55.586;37.730;2023-08-07T12:47:24;3.75;;;2.45;;
62711;SDS011;48772;55.586;37.730;2023-08-07T12:49:50;12.13;;;3.20;;
62711;SDS011;48772;55.586;37.730;2023-08-07T12:52:16;4.38;;;2.42;;
62711;SDS011;48772;55.586;37.730;2023-08-07T12:54:43;5.80;;;2.75;;
62711;SDS011;48772;55.586;37.730;2023-08-07T12:57:09;3.72;;;2.38;;
62711;SDS011;48772;55.586;37.730;2023-08-07T12:59:36;7.05;;;2.50;;
62711;SDS011;48772;55.586;37.730;2023-08-07T13:02:01;7.20;;;2.30;;
62711;SDS011;48772;55.586;37.730;2023-08-07T13:04:28;3.22;;;2.17;;
62711;SDS011;48772;55.586;37.730;2023-08-07T13:06:53;4.75;;;2.30;;
62711;SDS011;48772;55.586;37.730;2023-08-07T13:09:19;6.28;;;2.60;;
62711;SDS011;48772;55.586;37.730;2023-08-07T13:11:45;4.65;;;2.40;;
62711;SDS011;48772;55.586;37.730;2023-08-07T13:14:11;4.28;;;2.25;;
62711;SDS011;48772;55.586;37.730;2023-08-07T13:16:37;7.45;;;2.45;;
62711;SDS011;48772;55.586;37.730;2023-08-07T13:19:03;3.05;;;2.33;;
62711;SDS011;48772;55.586;37.730;2023-08-07T13:21:29;5.40;;;2.65;;
62711;SDS011;48772;55.586;37.730;2023-08-07T13:23:55;7.88;;;2.40;;
62711;SDS011;48772;55.586;37.730;2023-08-07T13:26:21;4.25;;;2.13;;
62711;SDS011;48772;55.586;37.730;2023-08-07T13:28:47;5.55;;;2.50;;
62711;SDS011;48772;55.586;37.730;2023-08-07T13:31:12;6.75;;;2.55;;
62711;SDS011;48772;55.586;37.730;2023-08-07T13:33:38;3.72;;;2.40;;
62711;SDS011;48772;55.586;37.730;2023-08-07T13:36:04;13.15;;;2.90;;
62711;SDS011;48772;55.586;37.730;2023-08-07T13:38:30;3.90;;;2.47;;
62711;SDS011;48772;55.586;37.730;2023-08-07T13:40:56;5.07;;;2.20;;
62711;SDS011;48772;55.586;37.730;2023-08-07T13:43:22;15.05;;;2.90;;
62711;SDS011;48772;55.586;37.730;2023-08-07T13:45:48;11.40;;;3.10;;
62711;SDS011;48772;55.586;37.730;2023-08-07T13:48:16;6.60;;;2.75;;
62711;SDS011;48772;55.586;37.730;2023-08-07T13:50:42;13.70;;;2.55;;
62711;SDS011;48772;55.586;37.730;2023-08-07T13:53:09;10.15;;;3.25;;
62711;SDS011;48772;55.586;37.730;2023-08-07T13:55:34;6.13;;;2.35;;
62711;SDS011;48772;55.586;37.730;2023-08-07T13:58:00;4.28;;;2.65;;
62711;SDS011;48772;55.586;37.730;2023-08-07T14:00:26;8.48;;;2.80;;
62711;SDS011;48772;55.586;37.730;2023-08-07T14:02:52;3.78;;;2.50;;
62711;SDS011;48772;55.586;37.730;2023-08-07T14:05:18;3.55;;;2.30;;
62711;SDS011;48772;55.586;37.730;2023-08-07T14:07:44;7.30;;;3.67;;
62711;SDS011;48772;55.586;37.730;2023-08-07T14:10:10;4.32;;;2.42;;
62711;SDS011;48772;55.586;37.730;2023-08-07T14:12:36;2.78;;;2.10;;
62711;SDS011;48772;55.586;37.730;2023-08-07T14:15:02;5.78;;;2.30;;
62711;SDS011;48772;55.586;37.730;2023-08-07T14:17:29;8.52;;;2.47;;
62711;SDS011;48772;55.586;37.730;2023-08-07T14:19:55;7.50;;;2.50;;
62711;SDS011;48772;55.586;37.730;2023-08-07T14:22:21;8.77;;;2.35;;
62711;SDS011;48772;55.586;37.730;2023-08-07T14:24:47;4.18;;;2.22;;
62711;SDS011;48772;55.586;37.730;2023-08-07T14:27:13;5.70;;;2.40;;
62711;SDS011;48772;55.586;37.730;2023-08-07T14:29:39;5.80;;;2.25;;
62711;SDS011;48772;55.586;37.730;2023-08-07T14:32:07;3.85;;;2.60;;
62711;SDS011;48772;55.586;37.730;2023-08-07T14:34:33;6.18;;;2.47;;
62711;SDS011;48772;55.586;37.730;2023-08-07T14:36:59;3.70;;;2.30;;
62711;SDS011;48772;55.586;37.730;2023-08-07T14:39:26;17.67;;;2.90;;
62711;SDS011;48772;55.586;37.730;2023-08-07T14:41:52;5.13;;;2.55;;
62711;SDS011;48772;55.586;37.730;2023-08-07T14:44:20;3.45;;;2.38;;
62711;SDS011;48772;55.586;37.730;2023-08-07T14:46:46;5.07;;;2.25;;
62711;SDS011;48772;55.586;37.730;2023-08-07T14:49:12;6.03;;;2.50;;
62711;SDS011;48772;55.586;37.730;2023-08-07T14:51:38;4.80;;;2.30;;
62711;SDS011;48772;55.586;37.730;2023-08-07T14:54:03;5.97;;;2.55;;
62711;SDS011;48772;55.586;37.730;2023-08-07T14:56:29;4.55;;;2.60;;
62711;SDS011;48772;55.586;37.730;2023-08-07T14:58:55;3.55;;;2.45;;
62711;SDS011;48772;55.586;37.730;2023-08-07T15:01:21;7.30;;;2.70;;
62711;SDS011;48772;55.586;37.730;2023-08-07T15:03:47;5.00;;;2.40;;
62711;SDS011;48772;55.586;37.730;2023-08-07T15:06:12;4.97;;;2.65;;
62711;SDS011;48772;55.586;37.730;2023-08-07T15:08:38;3.30;;;2.53;;
62711;SDS011;48772;55.586;37.730;2023-08-07T15:11:05;5.50;;;2.60;;
62711;SDS011;48772;55.586;37.730;2023-08-07T15:13:31;5.97;;;2.85;;
62711;SDS011;48772;55.586;37.730;2023-08-07T15:15:58;4.57;;;2.60;;
62711;SDS011;48772;55.586;37.730;2023-08-07T15:18:24;5.88;;;2.50;;
62711;SDS011;48772;55.586;37.730;2023-08-07T15:20:51;6.88;;;2.70;;
62711;SDS011;48772;55.586;37.730;2023-08-07T15:23:17;6.10;;;2.88;;
62711;SDS011;48772;55.586;37.730;2023-08-07T15:25:43;7.05;;;2.60;;
62711;SDS011;48772;55.586;37.730;2023-08-07T15:28:10;5.80;;;2.47;;
62711;SDS011;48772;55.586;37.730;2023-08-07T15:30:37;7.28;;;2.65;;
62711;SDS011;48772;55.586;37.730;2023-08-07T15:33:03;3.53;;;2.50;;
62711;SDS011;48772;55.586;37.730;2023-08-07T15:35:29;4.50;;;2.40;;
62711;SDS011;48772;55.586;37.730;2023-08-07T15:37:57;6.07;;;2.70;;
62711;SDS011;48772;55.586;37.730;2023-08-07T15:40:25;8.35;;;2.72;;
62711;SDS011;48772;55.586;37.730;2023-08-07T15:42:52;3.85;;;2.40;;
62711;SDS011;48772;55.586;37.730;2023-08-07T15:45:18;7.07;;;2.60;;